createdAt,value
2024-04-30T00:00:46.516Z,99.90
2024-04-30T00:03:13.981Z,99.90
2024-04-30T00:05:41.422Z,99.90
2024-04-30T00:08:09.242Z,99.90
2024-04-30T00:10:36.604Z,1.00
2024-04-30T00:13:04.575Z,1.00
2024-04-30T00:15:32.056Z,1.00
2024-04-30T00:17:59.423Z,1.00
2024-04-30T00:20:26.803Z,1.00
2024-04-30T00:22:54.381Z,1.00
2024-04-30T00:25:21.723Z,1.00
2024-04-30T00:27:50.109Z,1.00
2024-04-30T00:30:17.753Z,1.00
2024-04-30T00:32:45.053Z,1.00
2024-04-30T00:35:12.479Z,1.00
2024-04-30T00:37:39.956Z,1.00
2024-04-30T00:40:07.904Z,1.00
2024-04-30T00:42:35.290Z,1.00
2024-04-30T00:45:02.786Z,1.00
2024-04-30T00:47:31.052Z,1.00
2024-04-30T00:49:58.484Z,1.00
2024-04-30T00:52:26.484Z,1.00
2024-04-30T00:54:54.071Z,20.90
2024-04-30T00:57:21.932Z,31.50
2024-04-30T00:59:49.380Z,25.20
2024-04-30T01:02:16.964Z,17.60
2024-04-30T01:04:44.668Z,17.60
2024-04-30T01:07:12.136Z,27.20
2024-04-30T01:09:39.419Z,25.90
2024-04-30T01:12:06.937Z,24.70
2024-04-30T01:14:34.384Z,36.20
2024-04-30T01:17:01.772Z,34.20
2024-04-30T01:19:29.212Z,33.80
2024-04-30T01:21:56.792Z,54.00
2024-04-30T01:24:24.100Z,69.60
2024-04-30T01:26:51.436Z,87.80
2024-04-30T01:29:18.916Z,91.80
2024-04-30T01:31:46.267Z,93.90
2024-04-30T01:34:13.630Z,99.80
2024-04-30T01:36:41.122Z,87.30
2024-04-30T01:39:08.419Z,60.30
2024-04-30T01:41:35.924Z,50.60
2024-04-30T01:44:03.349Z,43.20
2024-04-30T01:46:30.691Z,35.70
2024-04-30T01:48:58.113Z,45.00
2024-04-30T01:51:25.574Z,65.30
2024-04-30T01:53:52.877Z,61.90
2024-04-30T01:56:20.173Z,53.50
2024-04-30T01:58:47.581Z,53.80
2024-04-30T02:01:18.109Z,67.90
2024-04-30T02:03:45.589Z,77.70
2024-04-30T02:06:13.055Z,66.20
2024-04-30T02:08:40.374Z,72.80
2024-04-30T02:11:07.757Z,63.60
2024-04-30T02:13:35.335Z,42.00
2024-04-30T02:16:02.934Z,32.70
2024-04-30T02:18:30.387Z,48.00
2024-04-30T02:20:57.825Z,78.60
2024-04-30T02:23:25.161Z,85.70
2024-04-30T02:25:52.454Z,95.10
2024-04-30T02:28:19.971Z,99.90
2024-04-30T02:31:05.936Z,99.20
2024-04-30T02:33:52.215Z,99.90
2024-04-30T02:36:19.663Z,89.60
2024-04-30T02:38:47.015Z,96.40
2024-04-30T02:41:14.376Z,91.60
2024-04-30T02:43:41.817Z,80.30
2024-04-30T02:46:09.226Z,71.90
2024-04-30T02:48:36.712Z,48.40
2024-04-30T02:51:05.060Z,33.00
2024-04-30T02:53:32.468Z,31.20
2024-04-30T02:55:59.823Z,27.40
2024-04-30T02:58:27.215Z,94.30
2024-04-30T03:00:54.711Z,99.90
2024-04-30T03:03:22.156Z,99.90
2024-04-30T03:05:49.555Z,99.90
2024-04-30T03:08:17.996Z,99.90
2024-04-30T03:10:45.465Z,99.90
2024-04-30T03:13:12.849Z,99.90
2024-04-30T03:15:40.411Z,99.90
2024-04-30T03:18:07.958Z,99.90
2024-04-30T03:20:35.377Z,99.90
2024-04-30T03:23:02.925Z,99.90
2024-04-30T03:25:30.304Z,99.90
2024-04-30T03:28:00.591Z,99.90
2024-04-30T03:30:29.683Z,99.90
2024-04-30T03:33:00.139Z,99.90
2024-04-30T03:35:30.554Z,99.90
2024-04-30T03:37:57.979Z,99.90
2024-04-30T03:40:25.280Z,99.90
2024-04-30T03:42:54.347Z,99.90
2024-04-30T03:45:22.063Z,99.90
2024-04-30T03:47:49.525Z,99.90
2024-04-30T03:50:17.010Z,99.90
2024-04-30T03:52:44.323Z,99.90
2024-04-30T03:55:11.709Z,99.90
2024-04-30T03:57:42.415Z,99.90
2024-04-30T04:00:10.119Z,99.90
2024-04-30T04:02:37.478Z,99.90
2024-04-30T04:05:05.127Z,99.90
2024-04-30T04:07:32.607Z,99.90
2024-04-30T04:10:00.145Z,99.90
2024-04-30T04:12:46.199Z,99.90
2024-04-30T04:15:13.586Z,99.90
2024-04-30T04:17:41.052Z,99.90
2024-04-30T04:20:08.724Z,99.90
2024-04-30T04:22:36.195Z,99.90
2024-04-30T04:25:03.806Z,99.90
2024-04-30T04:27:31.126Z,99.90
2024-04-30T04:29:58.647Z,99.90
2024-04-30T04:32:26.663Z,99.90
2024-04-30T04:34:55.583Z,99.90
2024-04-30T04:37:25.777Z,99.90
2024-04-30T04:39:54.876Z,99.90
2024-04-30T04:42:22.239Z,99.90
2024-04-30T04:44:49.561Z,99.90
2024-04-30T04:47:17.147Z,99.90
2024-04-30T04:49:44.634Z,99.90
2024-04-30T04:52:12.047Z,99.90
2024-04-30T04:54:39.568Z,99.90
2024-04-30T04:57:06.906Z,99.90
2024-04-30T04:59:34.231Z,99.90
2024-04-30T05:02:01.732Z,99.90
2024-04-30T05:04:29.418Z,99.90
2024-04-30T05:06:58.008Z,99.90
2024-04-30T05:09:28.567Z,99.90
2024-04-30T05:11:56.167Z,99.90
2024-04-30T05:14:23.584Z,99.90
2024-04-30T05:16:51.855Z,99.90
2024-04-30T05:19:19.289Z,99.90
2024-04-30T05:21:46.643Z,99.90
2024-04-30T05:24:15.637Z,99.90
2024-04-30T05:26:42.956Z,99.90
2024-04-30T05:29:10.322Z,99.90
2024-04-30T05:31:41.673Z,49.40
2024-04-30T05:34:09.161Z,23.00
2024-04-30T05:36:36.507Z,51.20
2024-04-30T05:39:04.063Z,95.60
2024-04-30T05:41:31.412Z,99.90
2024-04-30T05:43:59.790Z,77.60
2024-04-30T05:46:27.428Z,29.30
2024-04-30T05:48:54.949Z,1.00
2024-04-30T05:51:22.277Z,1.00
2024-04-30T05:53:51.062Z,1.00
2024-04-30T05:56:19.554Z,1.00
2024-04-30T05:58:47.407Z,1.00
2024-04-30T06:01:15.096Z,99.90
2024-04-30T06:03:42.631Z,1.00
2024-04-30T06:06:10.943Z,1.00
2024-04-30T06:08:41.501Z,1.00
2024-04-30T06:11:09.609Z,1.00
2024-04-30T06:13:37.236Z,99.90
2024-04-30T06:16:06.129Z,1.00
2024-04-30T06:18:33.572Z,99.90
2024-04-30T06:21:02.056Z,99.90
2024-04-30T06:23:29.505Z,59.60
2024-04-30T06:25:57.203Z,1.00
2024-04-30T06:28:24.591Z,1.00
2024-04-30T06:30:52.125Z,1.00
2024-04-30T06:33:19.707Z,1.00
2024-04-30T06:35:47.064Z,99.90
2024-04-30T06:38:14.433Z,99.90
2024-04-30T06:40:41.875Z,1.00
2024-04-30T06:43:09.429Z,1.00
2024-04-30T06:45:36.783Z,1.00
2024-04-30T06:48:05.720Z,1.00
2024-04-30T06:50:35.249Z,1.00
2024-04-30T06:53:02.573Z,1.00
2024-04-30T06:55:29.944Z,99.90
2024-04-30T06:57:57.277Z,1.00
2024-04-30T07:00:24.687Z,1.00
2024-04-30T07:02:52.207Z,99.90
2024-04-30T07:05:19.767Z,99.90
2024-04-30T07:07:47.171Z,99.90
2024-04-30T07:10:14.703Z,19.10
2024-04-30T07:12:42.064Z,1.00
2024-04-30T07:15:09.682Z,1.00
2024-04-30T07:17:37.377Z,1.00
2024-04-30T07:20:05.155Z,99.90
2024-04-30T07:22:32.530Z,99.90
2024-04-30T07:25:00.045Z,99.90
2024-04-30T07:27:27.526Z,90.40
2024-04-30T07:29:54.904Z,1.00
2024-04-30T07:32:22.423Z,1.00
2024-04-30T07:34:49.888Z,24.50
2024-04-30T07:37:17.288Z,1.00
2024-04-30T07:39:44.898Z,1.00
2024-04-30T07:42:12.272Z,1.00
2024-04-30T07:44:39.569Z,1.00
2024-04-30T07:47:07.103Z,1.00
2024-04-30T07:49:34.518Z,99.90
2024-04-30T07:52:01.939Z,1.00
2024-04-30T07:54:29.851Z,99.90
2024-04-30T07:56:57.204Z,99.90
2024-04-30T07:59:24.627Z,99.90
2024-04-30T08:01:52.215Z,99.90
2024-04-30T08:04:19.716Z,99.90
2024-04-30T08:06:47.092Z,12.60
2024-04-30T08:09:18.624Z,1.00
2024-04-30T08:11:46.246Z,1.00
2024-04-30T08:14:13.587Z,1.00
2024-04-30T08:16:41.178Z,1.00
2024-04-30T08:19:08.658Z,1.00
2024-04-30T08:21:36.045Z,1.00
2024-04-30T08:24:03.510Z,1.00
2024-04-30T08:26:30.916Z,99.90
2024-04-30T08:28:58.300Z,99.90
2024-04-30T08:31:26.462Z,99.90
2024-04-30T08:33:55.391Z,99.90
2024-04-30T08:36:29.352Z,99.90
2024-04-30T08:38:58.424Z,99.90
2024-04-30T08:41:26.142Z,15.70
2024-04-30T08:43:54.326Z,1.00
2024-04-30T08:46:21.821Z,1.00
2024-04-30T08:48:51.383Z,1.00
2024-04-30T08:51:18.811Z,1.00
2024-04-30T08:53:48.068Z,1.00
2024-04-30T08:56:16.079Z,1.00
2024-04-30T08:58:43.473Z,1.00
2024-04-30T09:01:11.375Z,1.00
2024-04-30T09:03:41.411Z,1.00
2024-04-30T09:06:09.535Z,1.00
2024-04-30T09:08:36.915Z,1.00
2024-04-30T09:11:04.662Z,1.00
2024-04-30T09:13:42.176Z,1.00
2024-04-30T09:16:13.783Z,1.00
2024-04-30T09:18:51.949Z,1.00
2024-04-30T09:21:30.060Z,99.90
2024-04-30T09:24:07.572Z,99.90
2024-04-30T09:26:35.336Z,99.90
2024-04-30T09:29:03.754Z,99.90
2024-04-30T09:31:40.639Z,99.90
2024-04-30T09:34:09.273Z,99.90
2024-04-30T09:36:37.614Z,99.90
2024-04-30T09:39:08.155Z,99.90
2024-04-30T09:41:39.808Z,99.90
2024-04-30T09:44:08.489Z,99.90
2024-04-30T09:46:36.471Z,99.90
2024-04-30T09:49:07.652Z,99.90
2024-04-30T09:51:40.636Z,99.90
2024-04-30T09:54:08.541Z,99.90
2024-04-30T09:56:35.994Z,99.90
2024-04-30T09:59:03.387Z,94.40
2024-04-30T10:01:35.633Z,19.00
2024-04-30T10:04:05.971Z,1.00
2024-04-30T10:06:34.819Z,1.00
2024-04-30T10:09:02.399Z,1.00
2024-04-30T10:11:29.843Z,1.00
2024-04-30T10:13:57.306Z,1.00
2024-04-30T10:16:24.965Z,1.00
2024-04-30T10:19:12.657Z,1.00
2024-04-30T10:21:40.024Z,1.00
2024-04-30T10:24:21.307Z,1.00
2024-04-30T10:26:50.058Z,1.00
2024-04-30T10:29:18.035Z,1.00
2024-04-30T10:31:49.513Z,1.00
2024-04-30T10:34:18.110Z,1.00
2024-04-30T10:36:49.178Z,1.00
2024-04-30T10:39:27.072Z,1.00
2024-04-30T10:41:54.897Z,1.00
2024-04-30T10:44:22.219Z,1.00
2024-04-30T10:46:50.590Z,1.00
2024-04-30T10:49:23.819Z,1.00
2024-04-30T10:51:51.601Z,1.00
2024-04-30T10:54:19.390Z,1.00
2024-04-30T10:56:46.990Z,1.00
2024-04-30T10:59:14.312Z,1.00
2024-04-30T11:01:41.858Z,1.00
2024-04-30T11:04:10.868Z,1.00
2024-04-30T11:06:46.623Z,1.00
2024-04-30T11:09:15.733Z,1.00
2024-04-30T11:11:48.909Z,1.00
2024-04-30T11:14:16.641Z,99.90
2024-04-30T11:16:45.236Z,99.90
2024-04-30T11:19:13.387Z,99.90
2024-04-30T11:21:40.857Z,99.90
2024-04-30T11:24:10.465Z,56.00
2024-04-30T11:26:37.886Z,1.00
2024-04-30T11:29:22.539Z,1.00
2024-04-30T11:31:53.451Z,1.00
2024-04-30T11:34:20.800Z,1.00
2024-04-30T11:36:48.184Z,1.00
2024-04-30T11:39:15.738Z,1.00
2024-04-30T11:41:48.936Z,1.00
2024-04-30T11:44:24.420Z,1.00
2024-04-30T11:46:51.889Z,1.00
2024-04-30T11:49:19.275Z,1.00
2024-04-30T11:51:46.610Z,1.00
2024-04-30T11:54:14.132Z,1.00
2024-04-30T11:56:41.521Z,1.00
2024-04-30T11:59:08.897Z,1.00
2024-04-30T12:01:36.348Z,1.00
2024-04-30T12:04:03.686Z,1.00
2024-04-30T12:06:31.118Z,1.00
2024-04-30T12:09:00.394Z,1.00
2024-04-30T12:11:27.928Z,1.00
2024-04-30T12:13:57.091Z,1.00
2024-04-30T12:16:25.154Z,1.00
2024-04-30T12:18:52.724Z,1.00
2024-04-30T12:21:20.083Z,1.00
2024-04-30T12:23:49.729Z,1.00
2024-04-30T12:26:17.386Z,1.00
2024-04-30T12:28:44.988Z,1.00
2024-04-30T12:31:12.384Z,1.00
2024-04-30T12:33:39.930Z,1.00
2024-04-30T12:36:07.433Z,1.00
2024-04-30T12:38:34.924Z,1.00
2024-04-30T12:41:02.435Z,1.00
2024-04-30T12:43:29.826Z,1.00
2024-04-30T12:45:57.217Z,1.00
2024-04-30T12:48:24.918Z,1.00
2024-04-30T12:50:52.338Z,1.00
2024-04-30T12:53:19.739Z,1.00
2024-04-30T12:55:47.260Z,1.00
2024-04-30T12:58:14.762Z,1.00
2024-04-30T13:00:42.185Z,1.00
2024-04-30T13:03:09.751Z,1.00
2024-04-30T13:05:41.118Z,1.00
2024-04-30T13:08:08.470Z,1.00
2024-04-30T13:10:36.039Z,1.00
2024-04-30T13:13:03.494Z,1.00
2024-04-30T13:15:30.873Z,1.00
2024-04-30T13:17:58.266Z,1.00
2024-04-30T13:20:25.613Z,1.00
2024-04-30T13:22:52.959Z,1.00
2024-04-30T13:25:20.468Z,1.00
2024-04-30T13:27:47.813Z,1.00
2024-04-30T13:30:15.252Z,1.00
2024-04-30T13:32:44.100Z,1.00
2024-04-30T13:35:11.663Z,1.00
2024-04-30T13:37:40.149Z,1.00
2024-04-30T13:40:08.377Z,1.00
2024-04-30T13:42:35.808Z,1.00
2024-04-30T13:45:03.185Z,1.00
2024-04-30T13:47:30.987Z,1.00
2024-04-30T13:49:58.621Z,1.00
2024-04-30T13:52:26.073Z,1.00
2024-04-30T13:54:53.623Z,1.00
2024-04-30T13:57:20.923Z,1.00
2024-04-30T13:59:48.266Z,1.00
2024-04-30T14:02:18.109Z,1.00
2024-04-30T14:04:45.678Z,1.00
2024-04-30T14:07:13.183Z,1.00
2024-04-30T14:09:40.599Z,1.00
2024-04-30T14:12:08.062Z,1.00
2024-04-30T14:14:38.853Z,1.00
2024-04-30T14:17:06.778Z,1.00
2024-04-30T14:19:35.163Z,1.00
2024-04-30T14:22:03.126Z,1.00
2024-04-30T14:24:30.826Z,1.00
2024-04-30T14:26:58.215Z,1.00
2024-04-30T14:29:25.528Z,1.00
2024-04-30T14:31:53.109Z,1.00
2024-04-30T14:34:20.606Z,1.00
2024-04-30T14:36:47.997Z,1.00
2024-04-30T14:39:15.578Z,1.00
2024-04-30T14:41:44.276Z,1.00
2024-04-30T14:44:14.849Z,1.00
2024-04-30T14:46:42.795Z,1.00
2024-04-30T14:49:10.686Z,1.00
2024-04-30T14:51:41.781Z,1.00
2024-04-30T14:54:09.348Z,1.00
2024-04-30T14:56:37.706Z,1.00
2024-04-30T14:59:05.328Z,1.00
2024-04-30T15:01:33.077Z,1.00
2024-04-30T15:04:00.911Z,1.00
2024-04-30T15:06:31.652Z,1.00
2024-04-30T15:08:59.283Z,1.00
2024-04-30T15:11:27.183Z,1.00
2024-04-30T15:13:54.653Z,1.00
2024-04-30T15:16:22.307Z,1.00
2024-04-30T15:18:49.870Z,1.00
2024-04-30T15:21:17.204Z,1.00
2024-04-30T15:23:45.402Z,1.00
2024-04-30T15:26:15.208Z,1.00
2024-04-30T15:28:43.338Z,1.00
2024-04-30T15:31:21.743Z,1.00
2024-04-30T15:33:49.533Z,1.00
2024-04-30T15:36:17.511Z,1.00
2024-04-30T15:38:46.543Z,1.00
2024-04-30T15:41:23.807Z,1.00
2024-04-30T15:43:51.839Z,1.00
2024-04-30T15:46:19.546Z,1.00
2024-04-30T15:48:50.346Z,1.00
2024-04-30T15:51:17.984Z,1.00
2024-04-30T15:53:45.406Z,1.00
2024-04-30T15:56:18.007Z,1.00
2024-04-30T15:58:48.398Z,1.00
2024-04-30T16:01:16.610Z,1.00
2024-04-30T16:03:44.905Z,1.00
2024-04-30T16:06:12.776Z,1.00
2024-04-30T16:08:40.292Z,1.00
2024-04-30T16:11:10.626Z,1.00
2024-04-30T16:13:40.205Z,1.00
2024-04-30T16:16:15.622Z,1.00
2024-04-30T16:18:47.282Z,1.00
2024-04-30T16:21:15.870Z,1.00
2024-04-30T16:23:44.216Z,1.00
2024-04-30T16:26:11.831Z,1.00
2024-04-30T16:28:43.985Z,1.00
2024-04-30T16:31:12.200Z,1.00
2024-04-30T16:33:39.941Z,1.00
2024-04-30T16:36:08.280Z,1.00
2024-04-30T16:38:38.611Z,1.00
2024-04-30T16:41:06.293Z,1.00
2024-04-30T16:43:33.621Z,1.00
2024-04-30T16:46:01.085Z,1.00
2024-04-30T16:48:29.822Z,1.00
2024-04-30T16:50:57.213Z,1.00
2024-04-30T16:53:24.762Z,1.00
2024-04-30T16:55:53.479Z,1.00
2024-04-30T16:58:21.868Z,1.00
2024-04-30T17:00:49.425Z,1.00
2024-04-30T17:03:16.963Z,1.00
2024-04-30T17:05:44.367Z,1.00
2024-04-30T17:08:11.828Z,1.00
2024-04-30T17:10:39.175Z,1.00
2024-04-30T17:13:06.641Z,1.00
2024-04-30T17:15:34.179Z,1.00
2024-04-30T17:18:01.597Z,1.00
2024-04-30T17:20:28.940Z,1.00
2024-04-30T17:22:56.265Z,1.00
2024-04-30T17:25:23.758Z,1.00
2024-04-30T17:27:51.093Z,1.00
2024-04-30T17:30:18.521Z,1.00
2024-04-30T17:32:46.031Z,1.00
2024-04-30T17:35:13.606Z,1.00
2024-04-30T17:37:40.912Z,1.00
2024-04-30T17:40:09.202Z,1.00
2024-04-30T17:42:37.820Z,1.00
2024-04-30T17:45:05.611Z,1.00
2024-04-30T17:47:33.201Z,1.00
2024-04-30T17:50:00.572Z,1.00
2024-04-30T17:52:31.208Z,1.00
2024-04-30T17:55:00.754Z,1.00
2024-04-30T17:57:28.180Z,1.00
2024-04-30T17:59:55.558Z,1.00
2024-04-30T18:02:23.094Z,1.00
2024-04-30T18:04:50.535Z,1.00
2024-04-30T18:07:17.879Z,1.00
2024-04-30T18:09:45.403Z,1.00
2024-04-30T18:12:12.870Z,1.00
2024-04-30T18:14:40.217Z,1.00
2024-04-30T18:17:07.703Z,1.00
2024-04-30T18:19:35.187Z,1.00
2024-04-30T18:22:02.952Z,1.00
2024-04-30T18:24:30.631Z,1.00
2024-04-30T18:26:57.979Z,1.00
2024-04-30T18:29:25.321Z,10.40
2024-04-30T18:31:53.590Z,19.50
2024-04-30T18:34:21.738Z,57.20
2024-04-30T18:36:49.429Z,79.20
2024-04-30T18:39:17.704Z,99.90
2024-04-30T18:41:45.548Z,99.90
2024-04-30T18:44:13.463Z,99.90
2024-04-30T18:46:41.033Z,99.90
2024-04-30T18:49:08.627Z,99.90
2024-04-30T18:51:41.587Z,99.90
2024-04-30T18:54:09.623Z,99.90
2024-04-30T18:56:40.958Z,99.90
2024-04-30T18:59:08.366Z,1.00
2024-04-30T19:01:36.798Z,1.00
2024-04-30T19:04:05.028Z,1.00
2024-04-30T19:06:32.678Z,1.00
2024-04-30T19:09:00.159Z,1.00
2024-04-30T19:11:27.556Z,1.00
2024-04-30T19:13:54.892Z,1.00
2024-04-30T19:16:22.327Z,1.00
2024-04-30T19:18:49.867Z,1.00
2024-04-30T19:21:18.465Z,1.00
2024-04-30T19:23:46.144Z,1.00
2024-04-30T19:26:17.796Z,1.00
2024-04-30T19:28:45.403Z,1.00
2024-04-30T19:31:20.807Z,1.00
2024-04-30T19:33:48.742Z,1.00
2024-04-30T19:36:27.056Z,1.00
2024-04-30T19:38:54.487Z,1.00
2024-04-30T19:41:21.856Z,1.00
2024-04-30T19:43:49.379Z,1.00
2024-04-30T19:46:20.803Z,1.00
2024-04-30T19:48:51.840Z,1.00
2024-04-30T19:51:21.697Z,1.00
2024-04-30T19:53:49.950Z,1.00
2024-04-30T19:56:24.130Z,1.00
2024-04-30T19:58:57.835Z,1.00
2024-04-30T20:01:29.104Z,1.00
2024-04-30T20:03:58.755Z,1.00
2024-04-30T20:06:27.242Z,1.00
2024-04-30T20:08:54.867Z,1.00
2024-04-30T20:11:25.451Z,1.00
2024-04-30T20:13:54.175Z,1.00
2024-04-30T20:16:24.314Z,1.00
2024-04-30T20:18:52.333Z,1.00
2024-04-30T20:21:20.346Z,99.90
2024-04-30T20:23:47.703Z,99.90
2024-04-30T20:26:15.453Z,99.90
2024-04-30T20:28:42.908Z,99.90
2024-04-30T20:31:10.315Z,99.90
2024-04-30T20:33:40.128Z,99.90
2024-04-30T20:39:02.212Z,99.90
2024-04-30T20:41:29.520Z,99.90
2024-04-30T20:43:57.077Z,99.90
2024-04-30T20:46:24.439Z,99.90
2024-04-30T20:48:51.950Z,1.00
2024-04-30T20:51:19.569Z,1.00
2024-04-30T20:53:47.220Z,1.00
2024-04-30T20:56:14.751Z,1.00
2024-04-30T20:58:42.509Z,1.00
2024-04-30T21:01:17.095Z,1.00
2024-04-30T21:03:44.854Z,1.00
2024-04-30T21:06:12.367Z,1.00
2024-04-30T21:08:39.755Z,1.00
2024-04-30T21:11:13.672Z,1.00
2024-04-30T21:13:41.909Z,1.00
2024-04-30T21:16:10.426Z,1.00
2024-04-30T21:18:37.908Z,1.00
2024-04-30T21:21:06.227Z,1.00
2024-04-30T21:23:33.635Z,99.90
2024-04-30T21:26:00.962Z,99.90
2024-04-30T21:28:28.517Z,99.90
2024-04-30T21:30:55.873Z,1.00
2024-04-30T21:33:23.450Z,1.00
2024-04-30T21:35:51.374Z,1.00
2024-04-30T21:38:18.692Z,1.00
2024-04-30T21:40:46.049Z,1.00
2024-04-30T21:43:13.402Z,1.00
2024-04-30T21:45:40.742Z,1.00
2024-04-30T21:48:08.645Z,1.00
2024-04-30T21:50:36.053Z,1.00
2024-04-30T21:53:03.604Z,40.80
2024-04-30T21:55:30.908Z,99.90
2024-04-30T21:57:58.294Z,99.90
2024-04-30T22:00:25.719Z,99.90
2024-04-30T22:02:57.697Z,99.90
2024-04-30T22:05:29.774Z,99.90
2024-04-30T22:07:57.121Z,1.00
2024-04-30T22:10:25.362Z,1.00
2024-04-30T22:12:52.770Z,1.00
2024-04-30T22:15:20.259Z,4.20
2024-04-30T22:17:47.911Z,99.90
2024-04-30T22:20:15.411Z,99.90
2024-04-30T22:22:42.745Z,99.90
2024-04-30T22:25:10.194Z,99.90
2024-04-30T22:27:37.594Z,45.10
2024-04-30T22:30:13.144Z,1.00
2024-04-30T22:32:50.188Z,25.50
2024-04-30T22:35:17.603Z,99.90
2024-04-30T22:37:45.149Z,99.90
2024-04-30T22:40:12.513Z,1.00
2024-04-30T22:42:39.930Z,1.00
2024-04-30T22:45:07.394Z,1.00
2024-04-30T22:47:35.445Z,97.20
2024-04-30T22:50:03.442Z,99.90
2024-04-30T22:52:30.922Z,1.00
2024-04-30T22:55:00.780Z,1.00
2024-04-30T22:57:28.200Z,1.00
2024-04-30T22:59:55.591Z,1.00
2024-04-30T23:02:23.375Z,1.00
2024-04-30T23:04:50.891Z,1.00
2024-04-30T23:07:18.332Z,1.00
2024-04-30T23:09:45.749Z,1.00
2024-04-30T23:12:13.208Z,1.00
2024-04-30T23:14:40.581Z,1.00
2024-04-30T23:17:07.924Z,1.00
2024-04-30T23:19:35.438Z,1.00
2024-04-30T23:22:02.835Z,1.00
2024-04-30T23:24:30.428Z,1.00
2024-04-30T23:26:57.910Z,1.00
2024-04-30T23:29:27.106Z,1.00
2024-04-30T23:31:55.140Z,1.00
2024-04-30T23:34:22.846Z,1.00
2024-04-30T23:36:53.804Z,99.90
2024-04-30T23:39:21.400Z,99.90
2024-04-30T23:41:48.892Z,1.00
2024-04-30T23:44:16.236Z,1.00
2024-04-30T23:46:43.659Z,99.90
2024-04-30T23:49:12.055Z,99.90
2024-04-30T23:51:39.406Z,99.90
2024-04-30T23:54:06.831Z,99.90
2024-04-30T23:56:34.266Z,99.90
2024-04-30T23:59:02.394Z,99.90
